Time;durP1;ratioP1;P1;durP2;ratioP2;P2;SDS_P1;SDS_P2;PMS_P1;PMS_P2;Temp;Humidity;BMP_temperature;BMP_pressure;BME280_temperature;BME280_humidity;BME280_pressure;Samples;Min_cycle;Max_cycle;Signal;HPM_P1;HPM_P2
2022/06/04 00:02:06;;;;;;;12.68;4.20;;;10.90;99.90;;;;;;5047610;28;20051;-93
2022/06/04 00:04:32;;;;;;;8.57;4.22;;;11.80;99.90;;;;;;5095393;28;20039;-93
2022/06/04 00:06:58;;;;;;;11.95;5.28;;;10.90;99.90;;;;;;5046985;28;20047;-92
2022/06/04 00:09:25;;;;;;;15.07;5.65;;;11.70;99.90;;;;;;5079275;28;20071;-93
2022/06/04 00:15:29;;;;;;;11.23;5.60;;;10.80;99.90;;;;;;5096619;28;20115;-93
2022/06/04 00:17:25;;;;;;;9.98;5.97;;;10.80;99.90;;;;;;5095899;28;20043;-92
2022/06/04 00:19:52;;;;;;;11.50;6.07;;;10.90;99.90;;;;;;5063627;28;20475;-93
2022/06/04 00:22:18;;;;;;;16.13;6.10;;;10.90;99.90;;;;;;5079693;28;20487;-93
2022/06/04 00:24:44;;;;;;;8.70;5.80;;;10.80;99.90;;;;;;5064191;28;20054;-92
2022/06/04 00:27:19;;;;;;;11.30;5.97;;;10.70;99.90;;;;;;5081343;28;20394;-93
2022/06/04 00:29:45;;;;;;;19.40;6.65;;;11.00;99.90;;;;;;5080895;28;20395;-92
2022/06/04 00:32:12;;;;;;;9.95;6.40;;;11.60;99.90;;;;;;5081488;28;20043;-93
2022/06/04 00:34:38;;;;;;;19.27;6.47;;;10.70;99.90;;;;;;5079803;28;20085;-91
2022/06/04 00:37:05;;;;;;;13.07;6.13;;;11.60;99.90;;;;;;5064085;28;20044;-94
2022/06/04 00:39:31;;;;;;;17.52;6.15;;;10.60;99.90;;;;;;5078961;28;20513;-93
2022/06/04 00:42:09;;;;;;;11.20;5.70;;;10.60;99.90;;;;;;5063813;28;20044;-92
2022/06/04 00:45:06;;;;;;;10.48;5.60;;;10.60;99.90;;;;;;5080429;28;20070;-91
2022/06/04 00:47:31;;;;;;;11.60;5.15;;;10.60;99.90;;;;;;5079252;28;20172;-92
2022/06/04 00:49:57;;;;;;;10.95;5.70;;;11.10;99.90;;;;;;5098870;28;20043;-93
2022/06/04 00:52:25;;;;;;;11.50;5.22;;;10.60;99.90;;;;;;5080731;28;20051;-93
2022/06/04 00:54:52;;;;;;;15.60;6.72;;;10.70;99.90;;;;;;5081368;28;20419;-94
2022/06/04 00:57:39;;;;;;;17.33;6.13;;;10.50;99.90;;;;;;5099157;28;20107;-92
2022/06/04 01:00:27;;;;;;;13.57;6.55;;;10.60;99.90;;;;;;5098074;28;20374;-94
2022/06/04 01:03:16;;;;;;;13.43;6.07;;;10.50;99.90;;;;;;5100214;28;20193;-93
2022/06/04 01:06:01;;;;;;;11.48;6.53;;;10.50;99.90;;;;;;5092700;28;20058;-93
2022/06/04 01:08:43;;;;;;;12.77;4.75;;;10.50;99.90;;;;;;5115464;28;20091;-93
2022/06/04 01:11:22;;;;;;;10.90;4.93;;;10.50;99.90;;;;;;5099670;28;20051;-94
2022/06/04 01:14:21;;;;;;;14.00;5.10;;;11.70;99.90;;;;;;5081785;28;20036;-92
2022/06/04 01:17:11;;;;;;;11.00;4.93;;;10.40;99.90;;;;;;5080721;28;20440;-93
2022/06/04 01:19:59;;;;;;;10.23;6.05;;;10.40;99.90;;;;;;5081748;28;20043;-92
2022/06/04 01:22:46;;;;;;;11.65;4.90;;;10.40;99.90;;;;;;5078518;28;20044;-93
2022/06/04 01:25:24;;;;;;;8.77;4.53;;;10.40;99.90;;;;;;5079120;28;20092;-93
2022/06/04 01:28:04;;;;;;;10.48;4.70;;;10.90;99.90;;;;;;5079248;28;20075;-94
2022/06/04 01:30:41;;;;;;;6.55;4.20;;;10.30;99.90;;;;;;5077077;28;20050;-93
2022/06/04 01:33:15;;;;;;;10.10;4.47;;;10.30;99.90;;;;;;5079320;28;20131;-93
2022/06/04 01:36:04;;;;;;;11.30;5.78;;;10.30;99.90;;;;;;5078448;28;20043;-94
2022/06/04 01:38:41;;;;;;;12.65;4.70;;;10.30;99.90;;;;;;5080115;28;20040;-93
2022/06/04 01:41:35;;;;;;;9.77;4.57;;;10.30;99.90;;;;;;5091420;28;20070;-94
2022/06/04 01:44:07;;;;;;;6.75;4.00;;;10.20;99.90;;;;;;5094183;28;20046;-94
2022/06/04 01:46:39;;;;;;;16.25;4.57;;;10.20;99.90;;;;;;5083228;28;20078;-93
2022/06/04 01:49:35;;;;;;;8.40;3.85;;;10.20;99.90;;;;;;5080764;28;20395;-94
2022/06/04 01:52:26;;;;;;;6.88;4.38;;;10.20;99.90;;;;;;5077653;28;20054;-94
2022/06/04 01:55:08;;;;;;;15.00;5.00;;;10.10;99.90;;;;;;5059142;28;20059;-92
2022/06/04 01:58:03;;;;;;;10.27;4.65;;;10.10;99.90;;;;;;5077201;28;20680;-93
2022/06/04 02:00:37;;;;;;;11.23;4.32;;;10.10;99.90;;;;;;5061442;28;20043;-94
2022/06/04 02:03:11;;;;;;;14.38;6.10;;;10.10;99.90;;;;;;5062760;28;20273;-93
2022/06/04 02:05:45;;;;;;;13.65;5.25;;;10.00;99.90;;;;;;5061074;28;20032;-93
2022/06/04 02:08:15;;;;;;;7.10;3.97;;;10.00;99.90;;;;;;5059960;28;20458;-95
2022/06/04 02:10:53;;;;;;;8.15;4.28;;;10.80;99.90;;;;;;5059609;28;20069;-93
2022/06/04 02:13:19;;;;;;;7.30;4.65;;;9.90;99.90;;;;;;5057922;28;20052;-93
2022/06/04 02:16:03;;;;;;;12.20;5.53;;;9.90;99.90;;;;;;5059176;28;20086;-91
2022/06/04 02:18:29;;;;;;;;;;;9.80;99.90;;;;;;5058832;28;20078;-93
2022/06/04 02:20:54;;;;;;;6.43;4.28;;;9.90;99.90;;;;;;5058805;28;19920;-93
2022/06/04 02:23:21;;;;;;;10.85;4.43;;;9.80;99.90;;;;;;5059315;28;20052;-93
2022/06/04 02:25:47;;;;;;;9.52;5.00;;;9.80;99.90;;;;;;5057895;28;20075;-93
2022/06/04 02:28:13;;;;;;;12.20;5.00;;;9.90;99.90;;;;;;5043691;28;20134;-94
2022/06/04 02:30:55;;;;;;;8.82;4.88;;;10.10;99.90;;;;;;5074278;28;20073;-92
2022/06/04 02:33:44;;;;;;;6.57;4.38;;;9.90;99.90;;;;;;5057530;28;20424;-95
2022/06/04 02:36:18;;;;;;;7.65;4.22;;;9.90;99.90;;;;;;5058447;28;20108;-93
2022/06/04 02:38:56;;;;;;;8.45;4.47;;;11.10;99.90;;;;;;5057292;28;20066;-94
2022/06/04 02:41:30;;;;;;;7.53;4.75;;;9.80;99.90;;;;;;5060512;28;20129;-94
2022/06/04 02:44:21;;;;;;;8.88;4.57;;;9.80;99.90;;;;;;5065305;28;20126;-93
2022/06/04 02:47:07;;;;;;;7.18;4.75;;;9.90;99.90;;;;;;5073720;28;20104;-94
2022/06/04 02:49:46;;;;;;;13.18;5.43;;;9.90;99.90;;;;;;5078302;28;20064;-93
2022/06/04 02:52:15;;;;;;;10.25;4.97;;;9.90;99.90;;;;;;5075508;28;20047;-93
2022/06/04 02:54:47;;;;;;;8.93;5.13;;;10.00;99.90;;;;;;5088929;28;20099;-94
2022/06/04 02:57:15;;;;;;;8.80;4.95;;;10.00;99.90;;;;;;5101857;28;20043;-93
2022/06/04 02:59:43;;;;;;;10.95;4.57;;;10.10;99.90;;;;;;5080352;28;20058;-93
2022/06/04 03:02:13;;;;;;;12.82;5.70;;;10.00;99.90;;;;;;5062054;28;20332;-94
2022/06/04 03:05:06;;;;;;;9.70;5.60;;;10.10;99.90;;;;;;5075601;28;20042;-93
2022/06/04 03:07:32;;;;;;;10.80;4.93;;;10.00;99.90;;;;;;5069272;28;20043;-93
2022/06/04 03:10:06;;;;;;;9.18;5.32;;;10.70;99.90;;;;;;5093378;28;20048;-93
2022/06/04 03:12:32;;;;;;;12.55;5.40;;;10.10;99.90;;;;;;5077086;28;20040;-92
2022/06/04 03:14:58;;;;;;;10.43;4.97;;;10.90;99.90;;;;;;5061340;28;20103;-92
2022/06/04 03:17:24;;;;;;;12.20;5.15;;;10.10;99.90;;;;;;5058522;28;20107;-93
2022/06/04 03:19:50;;;;;;;9.10;4.85;;;10.20;99.90;;;;;;5077692;28;20047;-93
2022/06/04 03:22:17;;;;;;;7.40;4.68;;;10.90;99.90;;;;;;5061065;28;20047;-93
2022/06/04 03:24:43;;;;;;;8.48;4.95;;;10.20;99.90;;;;;;5082933;28;20040;-92
2022/06/04 03:27:08;;;;;;;13.27;5.13;;;10.20;99.90;;;;;;5082518;28;20054;-92
2022/06/04 03:29:34;;;;;;;11.50;5.55;;;10.20;99.90;;;;;;5081895;28;20054;-93
2022/06/04 03:32:00;;;;;;;8.18;5.20;;;10.20;99.90;;;;;;5066590;28;20079;-93
2022/06/04 03:34:26;;;;;;;8.68;4.70;;;10.20;99.90;;;;;;5063770;28;20043;-93
2022/06/04 03:36:51;;;;;;;9.50;5.15;;;10.20;99.90;;;;;;5067183;28;20039;-91
2022/06/04 03:39:17;;;;;;;7.40;5.25;;;10.80;99.90;;;;;;5081107;28;20054;-94
2022/06/04 03:41:43;;;;;;;8.13;4.60;;;10.40;99.90;;;;;;5065588;28;20051;-92
2022/06/04 03:44:09;;;;;;;13.20;4.68;;;11.50;99.90;;;;;;5064621;28;20044;-92
2022/06/04 03:46:34;;;;;;;13.23;4.68;;;10.20;99.90;;;;;;5068019;28;20027;-93
2022/06/04 03:49:00;;;;;;;7.47;4.65;;;10.70;99.90;;;;;;5070681;28;20059;-92
2022/06/04 03:51:29;;;;;;;8.77;4.40;;;10.00;99.90;;;;;;5104369;28;20063;-92
2022/06/04 03:53:56;;;;;;;8.10;4.15;;;10.20;99.90;;;;;;5082441;28;20402;-93
2022/06/04 03:56:22;;;;;;;7.30;4.32;;;11.00;99.90;;;;;;5079898;28;20113;-91
2022/06/04 03:58:49;;;;;;;14.35;4.25;;;10.30;99.90;;;;;;5080051;28;20044;-92
2022/06/04 04:01:17;;;;;;;5.28;3.80;;;10.80;99.90;;;;;;5079311;28;20554;-91
2022/06/04 04:03:44;;;;;;;7.07;3.80;;;10.30;99.90;;;;;;5095417;28;20054;-92
2022/06/04 04:06:25;;;;;;;6.32;3.42;;;10.40;99.90;;;;;;5062590;28;20040;-92
2022/06/04 04:08:52;;;;;;;6.60;3.42;;;10.40;99.90;;;;;;5078453;28;20050;-92
2022/06/04 04:11:20;;;;;;;7.53;3.65;;;10.40;99.90;;;;;;5085392;28;20062;-92
2022/06/04 04:13:46;;;;;;;6.85;3.90;;;10.40;99.90;;;;;;5106774;28;20042;-92
2022/06/04 04:16:13;;;;;;;7.43;3.40;;;10.50;99.90;;;;;;5066223;28;20422;-93
2022/06/04 04:18:40;;;;;;;6.65;3.53;;;10.50;99.90;;;;;;5079984;28;20092;-92
2022/06/04 04:21:14;;;;;;;7.38;3.80;;;11.30;99.90;;;;;;5082932;28;20073;-93
2022/06/04 04:23:41;;;;;;;5.30;3.30;;;10.50;99.90;;;;;;5095832;28;20089;-92
2022/06/04 04:26:09;;;;;;;7.95;3.33;;;10.70;99.90;;;;;;5082396;28;20091;-92
2022/06/04 04:28:36;;;;;;;7.82;3.60;;;11.50;99.90;;;;;;5089494;28;20039;-92
2022/06/04 04:31:03;;;;;;;4.72;2.90;;;10.60;99.90;;;;;;5063297;28;20046;-91
2022/06/04 04:33:28;;;;;;;8.38;4.40;;;10.70;99.90;;;;;;5063793;28;20130;-91
2022/06/04 04:35:54;;;;;;;7.47;3.53;;;10.80;99.90;;;;;;5063140;28;20067;-91
2022/06/04 04:38:21;;;;;;;7.43;3.38;;;10.80;99.90;;;;;;5061621;28;20039;-93
2022/06/04 04:40:48;;;;;;;6.57;3.25;;;11.30;99.90;;;;;;5066054;28;20047;-91
2022/06/04 04:43:14;;;;;;;6.30;3.42;;;10.90;99.90;;;;;;5082194;28;20040;-93
2022/06/04 04:45:43;;;;;;;11.55;4.30;;;11.00;99.90;;;;;;5098305;28;20057;-92
2022/06/04 04:48:10;;;;;;;4.03;3.20;;;11.10;99.90;;;;;;5085803;28;20517;-92
2022/06/04 04:50:38;;;;;;;7.63;3.47;;;11.10;99.90;;;;;;5084745;28;20036;-91
2022/06/04 04:53:08;;;;;;;7.82;3.10;;;11.20;99.90;;;;;;5077929;28;20533;-85
2022/06/04 04:55:33;;;;;;;4.70;2.80;;;11.40;99.90;;;;;;5109909;28;20040;-86
2022/06/04 04:58:00;;;;;;;5.63;3.47;;;12.20;99.90;;;;;;5091489;28;20086;-87
2022/06/04 05:00:27;;;;;;;6.90;3.22;;;11.40;99.90;;;;;;5107721;28;20035;-86
2022/06/04 05:02:53;;;;;;;7.35;3.70;;;11.50;99.90;;;;;;5090704;28;20043;-86
2022/06/04 05:05:19;;;;;;;4.95;3.20;;;11.60;99.90;;;;;;5089836;28;20039;-86
2022/06/04 05:07:44;;;;;;;6.35;3.53;;;11.70;99.90;;;;;;5090117;28;20774;-87
2022/06/04 05:10:12;;;;;;;6.35;3.42;;;11.70;99.90;;;;;;5101833;28;20159;-87
2022/06/04 05:12:37;;;;;;;8.45;3.40;;;11.90;99.90;;;;;;5107648;28;20043;-85
2022/06/04 05:15:04;;;;;;;5.32;3.20;;;11.90;99.90;;;;;;5110081;28;20035;-87
2022/06/04 05:17:30;;;;;;;6.53;3.35;;;12.00;99.90;;;;;;5088712;28;20577;-86
2022/06/04 05:19:56;;;;;;;8.85;3.17;;;12.00;99.90;;;;;;5090342;28;20044;-87
2022/06/04 05:22:21;;;;;;;6.40;3.58;;;12.20;99.90;;;;;;5089979;28;20379;-87
2022/06/04 05:24:47;;;;;;;4.75;3.45;;;12.20;99.90;;;;;;5108914;28;20090;-88
2022/06/04 05:27:13;;;;;;;3.65;2.78;;;12.40;99.90;;;;;;5109108;28;20043;-88
2022/06/04 05:29:39;;;;;;;6.13;3.10;;;12.40;99.90;;;;;;5089372;28;20589;-88
2022/06/04 05:32:06;;;;;;;5.25;3.35;;;12.50;99.90;;;;;;5074165;28;20044;-87
2022/06/04 05:34:33;;;;;;;5.30;2.90;;;12.60;99.90;;;;;;5107278;28;20059;-87
2022/06/04 05:37:01;;;;;;;6.82;3.17;;;12.60;99.90;;;;;;5108815;28;20055;-88
2022/06/04 05:39:31;;;;;;;3.75;3.00;;;12.60;99.90;;;;;;5107641;28;20032;-87
2022/06/04 05:41:58;;;;;;;9.25;3.45;;;12.70;99.90;;;;;;5090221;28;20095;-86
2022/06/04 05:44:24;;;;;;;4.65;3.17;;;12.80;99.90;;;;;;5108654;28;20543;-88
2022/06/04 05:46:50;;;;;;;7.95;2.97;;;12.90;99.90;;;;;;5071686;28;20047;-88
2022/06/04 05:49:15;;;;;;;6.65;3.17;;;12.90;99.90;;;;;;5057659;28;20039;-90
2022/06/04 05:51:43;;;;;;;6.05;2.70;;;13.00;99.90;;;;;;5089956;28;20043;-88
2022/06/04 05:54:10;;;;;;;5.53;2.95;;;13.20;99.90;;;;;;5075594;28;20040;-89
2022/06/04 05:56:39;;;;;;;6.15;2.60;;;13.20;99.90;;;;;;5069147;28;20043;-88
2022/06/04 05:59:08;;;;;;;7.65;3.30;;;13.30;99.90;;;;;;5097075;28;20036;-87
2022/06/04 06:01:38;;;;;;;4.75;3.22;;;13.40;99.90;;;;;;5096393;28;20043;-88
2022/06/04 06:04:05;;;;;;;5.90;2.92;;;13.40;99.90;;;;;;5060269;28;20402;-87
2022/06/04 06:06:32;;;;;;;6.10;3.50;;;13.50;99.90;;;;;;5054083;28;20083;-87
2022/06/04 06:09:01;;;;;;;6.50;3.05;;;14.00;99.90;;;;;;5036284;28;20079;-92
2022/06/04 06:11:26;;;;;;;5.43;3.20;;;14.50;99.90;;;;;;5055642;28;20531;-91
2022/06/04 06:13:52;;;;;;;4.90;2.58;;;14.00;99.90;;;;;;5038948;28;20036;-93
2022/06/04 06:16:21;;;;;;;3.72;2.75;;;14.20;99.90;;;;;;5054582;28;20115;-93
2022/06/04 06:18:46;;;;;;;3.63;2.42;;;14.40;99.90;;;;;;5054720;28;20371;-92
2022/06/04 06:21:15;;;;;;;3.88;2.45;;;14.50;99.90;;;;;;5035695;28;20349;-87
2022/06/04 06:23:42;;;;;;;3.83;3.10;;;14.90;99.90;;;;;;5054162;28;20130;-85
2022/06/04 06:26:14;;;;;;;3.13;2.58;;;14.80;99.90;;;;;;5051875;28;20084;-87
2022/06/04 06:28:42;;;;;;;4.93;2.53;;;14.90;99.90;;;;;;5087950;28;20119;-87
2022/06/04 06:31:10;;;;;;;4.03;2.45;;;15.10;99.90;;;;;;5036260;28;20368;-89
2022/06/04 06:33:36;;;;;;;4.13;2.25;;;15.30;99.90;;;;;;5064350;28;20036;-88
2022/06/04 06:36:05;;;;;;;5.18;2.53;;;16.00;99.90;;;;;;5059941;28;20097;-80
2022/06/04 06:38:31;;;;;;;2.83;2.10;;;15.50;99.90;;;;;;5067524;28;20047;-78
2022/06/04 06:40:58;;;;;;;2.65;2.20;;;15.60;99.90;;;;;;5070223;28;20376;-80
2022/06/04 06:46:13;;;;;;;3.10;2.33;;;15.80;99.90;;;;;;5087605;28;20055;-81
2022/06/04 06:48:42;;;;;;;4.18;2.15;;;15.80;99.90;;;;;;5087116;28;20039;-81
2022/06/04 06:51:10;;;;;;;4.78;1.98;;;15.90;99.90;;;;;;5067678;28;20043;-80
2022/06/04 06:53:36;;;;;;;3.28;2.22;;;15.90;99.90;;;;;;5097302;28;20081;-80
2022/06/04 06:56:29;;;;;;;7.45;2.30;;;15.90;99.90;;;;;;5086994;28;20052;-81
2022/06/04 06:58:56;;;;;;;4.18;2.50;;;15.90;99.90;;;;;;5103102;28;20055;-81
2022/06/04 07:01:24;;;;;;;3.85;2.17;;;15.80;99.90;;;;;;5106306;28;20046;-82
2022/06/04 07:03:50;;;;;;;3.95;2.35;;;15.70;99.90;;;;;;5087348;28;20092;-85
2022/06/04 07:06:31;;;;;;;5.18;2.75;;;15.50;99.90;;;;;;5089682;28;20039;-82
2022/06/04 07:08:57;;;;;;;5.35;2.67;;;15.20;99.90;;;;;;5087030;28;20047;-83
2022/06/04 07:11:23;;;;;;;3.75;2.22;;;15.60;99.90;;;;;;5071812;28;20043;-82
2022/06/04 07:13:49;;;;;;;3.75;2.65;;;15.00;99.90;;;;;;5071385;28;20363;-85
2022/06/04 07:16:14;;;;;;;5.22;2.38;;;14.90;99.90;;;;;;5071057;28;20096;-82
2022/06/04 07:18:40;;;;;;;4.20;2.70;;;15.00;99.90;;;;;;5105438;28;20051;-85
2022/06/04 07:21:06;;;;;;;4.63;2.45;;;15.90;99.90;;;;;;5087407;28;20043;-84
2022/06/04 07:23:34;;;;;;;4.38;2.33;;;16.00;99.90;;;;;;5107288;28;20490;-83
2022/06/04 07:26:01;;;;;;;3.72;2.20;;;15.50;99.90;;;;;;5105222;28;20054;-92
2022/06/04 07:28:27;;;;;;;3.00;1.98;;;16.50;99.90;;;;;;5055749;28;20123;-87
2022/06/04 07:30:54;;;;;;;3.00;1.90;;;15.70;99.90;;;;;;5087438;28;20100;-89
2022/06/04 07:33:20;;;;;;;3.28;2.10;;;15.80;99.90;;;;;;5071465;28;20079;-88
2022/06/04 07:35:50;;;;;;;4.07;1.75;;;16.00;99.90;;;;;;5107329;28;20435;-90
2022/06/04 07:38:16;;;;;;;2.63;1.73;;;16.40;99.90;;;;;;5070381;28;20483;-88
2022/06/04 07:40:43;;;;;;;3.08;2.13;;;16.30;99.90;;;;;;5094734;28;20107;-89
2022/06/04 07:43:12;;;;;;;5.32;1.90;;;16.40;99.90;;;;;;5090599;28;20039;-88
2022/06/04 07:45:38;;;;;;;5.05;2.25;;;16.50;99.90;;;;;;5090271;28;20043;-88
2022/06/04 07:48:06;;;;;;;4.65;1.30;;;16.80;99.90;;;;;;5071352;28;20043;-88
2022/06/04 07:50:32;;;;;;;5.43;1.63;;;16.60;99.90;;;;;;5088398;28;20044;-88
2022/06/04 07:52:58;;;;;;;2.85;1.45;;;16.70;99.90;;;;;;5054988;28;20051;-89
2022/06/04 07:55:25;;;;;;;2.53;1.58;;;16.70;99.90;;;;;;5087232;28;20047;-88
2022/06/04 07:57:51;;;;;;;2.85;1.38;;;16.80;99.90;;;;;;5089593;28;20036;-89
2022/06/04 08:00:19;;;;;;;3.85;1.77;;;17.40;99.90;;;;;;5071392;28;20043;-89
2022/06/04 08:02:46;;;;;;;3.90;1.63;;;16.80;99.90;;;;;;5093879;28;20046;-89
2022/06/04 08:05:13;;;;;;;2.60;1.83;;;16.80;99.90;;;;;;5075744;28;20131;-88
2022/06/04 08:07:41;;;;;;;3.20;1.52;;;16.80;99.90;;;;;;5076416;28;20413;-89
2022/06/04 08:10:08;;;;;;;5.68;1.77;;;16.90;99.90;;;;;;5079980;28;20491;-90
2022/06/04 08:12:35;;;;;;;4.15;1.70;;;17.00;99.90;;;;;;5078807;28;20081;-89
2022/06/04 08:15:03;;;;;;;3.88;1.92;;;17.20;99.90;;;;;;5097532;28;20071;-88
2022/06/04 08:17:31;;;;;;;4.60;2.08;;;17.30;99.90;;;;;;5096246;28;20048;-89
2022/06/04 08:19:57;;;;;;;2.15;1.88;;;17.40;99.90;;;;;;5097418;28;20043;-91
2022/06/04 08:22:23;;;;;;;6.65;2.65;;;17.50;99.90;;;;;;5097064;28;20069;-89
2022/06/04 08:24:50;;;;;;;6.00;1.70;;;17.90;99.90;;;;;;5080508;28;20046;-89
2022/06/04 08:27:16;;;;;;;4.35;1.60;;;17.60;99.90;;;;;;5098940;28;20075;-89
2022/06/04 08:29:43;;;;;;;3.70;1.67;;;17.60;99.90;;;;;;5110360;28;20318;-89
2022/06/04 08:32:09;;;;;;;4.20;1.60;;;17.60;99.90;;;;;;5114968;28;20707;-89
2022/06/04 08:34:35;;;;;;;3.13;1.50;;;17.70;99.90;;;;;;5088194;28;20064;-90
2022/06/04 08:37:01;;;;;;;3.10;1.55;;;17.90;99.90;;;;;;5095847;28;20047;-89
2022/06/04 08:39:27;;;;;;;3.75;1.73;;;18.00;99.90;;;;;;5091360;28;20043;-89
2022/06/04 08:41:56;;;;;;;3.88;1.83;;;18.10;99.90;;;;;;5082312;28;20091;-88
2022/06/04 08:44:35;;;;;;;4.90;1.55;;;18.10;99.90;;;;;;5117847;28;20082;-90
2022/06/04 08:47:07;;;;;;;5.50;1.85;;;18.10;99.90;;;;;;5078187;28;20047;-88
2022/06/04 08:49:43;;;;;;;1.47;1.00;;;18.10;99.90;;;;;;5079664;28;20111;-89
2022/06/04 08:52:19;;;;;;;2.45;1.67;;;18.10;99.90;;;;;;5114525;28;20635;-89
2022/06/04 08:57:59;;;;;;;5.05;1.65;;;18.20;99.90;;;;;;5114541;28;20055;-89
2022/06/04 09:00:33;;;;;;;4.68;1.60;;;18.30;99.90;;;;;;5093690;28;20270;-88
2022/06/04 09:03:16;;;;;;;2.38;1.40;;;18.30;99.90;;;;;;5094639;28;20044;-90
2022/06/04 09:06:06;;;;;;;5.78;1.70;;;18.30;99.90;;;;;;5095319;28;20051;-89
2022/06/04 09:08:57;;;;;;;3.75;1.25;;;18.40;99.90;;;;;;5093957;28;20047;-89
2022/06/04 09:11:46;;;;;;;4.45;1.40;;;18.50;99.90;;;;;;5098131;28;20091;-89
2022/06/04 09:14:43;;;;;;;2.20;1.45;;;18.70;99.90;;;;;;5081854;28;20068;-89
2022/06/04 09:17:17;;;;;;;4.10;1.50;;;18.80;99.90;;;;;;5095737;28;20627;-88
2022/06/04 09:19:50;;;;;;;4.93;1.88;;;18.90;99.90;;;;;;5107124;28;20040;-89
2022/06/04 09:22:22;;;;;;;2.45;1.40;;;18.80;99.90;;;;;;5086022;28;20039;-89
2022/06/04 09:24:48;;;;;;;;;;;18.80;99.90;;;;;;5096461;28;20063;-90
2022/06/04 09:27:36;;;;;;;5.50;1.48;;;18.90;99.90;;;;;;5096917;28;19946;-90
2022/06/04 09:30:18;;;;;;;5.68;1.60;;;18.90;99.90;;;;;;5077137;28;20036;-90
2022/06/04 09:33:25;;;;;;;2.50;1.55;;;18.90;99.90;;;;;;5096106;28;20445;-90
2022/06/04 09:35:54;;;;;;;3.00;1.45;;;19.00;99.90;;;;;;5034603;28;20057;-90
2022/06/04 09:38:27;;;;;;;2.22;1.38;;;19.00;99.90;;;;;;5046822;28;20033;-90
2022/06/04 09:40:58;;;;;;;;;;;19.00;99.90;;;;;;5050651;28;20111;-90
2022/06/04 09:43:24;;;;;;;3.05;1.70;;;19.10;99.90;;;;;;5092975;28;20393;-88
2022/06/04 09:45:53;;;;;;;3.47;1.48;;;19.20;99.90;;;;;;5077150;28;20063;-89
2022/06/04 09:48:23;;;;;;;2.88;1.30;;;19.30;99.90;;;;;;5092507;28;20052;-92
2022/06/04 09:50:58;;;;;;;5.50;1.25;;;19.30;99.90;;;;;;5072562;28;20050;-90
2022/06/04 09:53:31;;;;;;;2.45;1.30;;;19.30;99.90;;;;;;5074265;28;20048;-90
2022/06/04 09:56:18;;;;;;;1.50;1.05;;;19.30;99.90;;;;;;5072168;28;20131;-90
2022/06/04 09:58:47;;;;;;;4.07;1.45;;;19.30;99.90;;;;;;5065519;28;20048;-90
2022/06/04 10:01:18;;;;;;;2.75;1.35;;;19.50;99.90;;;;;;5073548;28;20142;-88
2022/06/04 10:03:57;;;;;;;2.03;1.40;;;19.60;99.90;;;;;;5088849;28;20153;-89
2022/06/04 10:06:25;;;;;;;4.05;2.05;;;19.70;99.90;;;;;;5073910;28;20486;-90
2022/06/04 10:11:57;;;;;;;2.95;1.67;;;19.70;99.90;;;;;;5090713;28;20059;-90
2022/06/04 10:14:31;;;;;;;2.03;1.30;;;19.70;99.90;;;;;;5073731;28;20510;-89
2022/06/04 10:16:58;;;;;;;1.70;1.40;;;19.70;99.90;;;;;;5090347;28;20043;-90
2022/06/04 10:19:25;;;;;;;3.15;1.50;;;19.70;99.90;;;;;;5074861;28;20082;-90
2022/06/04 10:22:05;;;;;;;2.15;1.50;;;19.70;99.90;;;;;;5072565;28;20131;-90
2022/06/04 10:24:35;;;;;;;2.92;1.50;;;19.80;99.90;;;;;;5089380;28;20478;-90
2022/06/04 10:27:38;;;;;;;2.75;1.60;;;19.90;99.90;;;;;;5079255;28;20382;-91
2022/06/04 10:30:18;;;;;;;4.20;1.67;;;19.90;99.50;;;;;;5097897;28;20047;-91
2022/06/04 10:33:19;;;;;;;2.97;1.55;;;19.80;99.90;;;;;;5102663;28;20051;-90
2022/06/04 10:35:54;;;;;;;4.10;1.70;;;19.80;99.70;;;;;;5074369;28;20055;-91
2022/06/04 10:38:41;;;;;;;4.47;1.88;;;19.90;99.90;;;;;;5083751;28;20126;-91
2022/06/04 10:41:17;;;;;;;4.60;1.88;;;20.00;99.90;;;;;;5074333;28;20509;-90
2022/06/04 10:44:16;;;;;;;4.75;2.10;;;20.00;99.90;;;;;;5089627;28;20043;-89
2022/06/04 10:47:03;;;;;;;2.47;1.33;;;19.90;99.90;;;;;;5071191;28;20130;-91
2022/06/04 10:49:45;;;;;;;4.00;1.70;;;20.00;99.80;;;;;;5073345;28;20043;-91
2022/06/04 10:52:39;;;;;;;3.90;1.70;;;20.10;99.90;;;;;;5088787;28;20100;-90
2022/06/04 10:55:36;;;;;;;5.93;1.55;;;20.10;99.50;;;;;;5071102;28;20047;-90
2022/06/04 10:58:23;;;;;;;3.63;1.30;;;20.10;99.90;;;;;;5082796;28;20043;-90
2022/06/04 11:01:35;;;;;;;3.58;1.83;;;20.10;99.90;;;;;;5102134;28;20038;-90
2022/06/04 11:04:19;;;;;;;2.17;1.73;;;20.20;98.90;;;;;;5099007;28;20044;-90
2022/06/04 11:06:54;;;;;;;3.55;2.20;;;20.30;99.30;;;;;;5073713;28;20131;-91
2022/06/04 11:09:39;;;;;;;2.42;1.55;;;20.30;99.90;;;;;;5090121;28;20398;-91
2022/06/04 11:12:40;;;;;;;3.83;1.42;;;20.50;99.70;;;;;;5087747;28;20044;-91
2022/06/04 11:15:15;;;;;;;4.63;2.70;;;20.60;98.90;;;;;;5089997;28;20044;-90
2022/06/04 11:17:51;;;;;;;3.45;1.50;;;20.60;98.90;;;;;;5071971;28;20043;-90
2022/06/04 11:20:29;;;;;;;1.63;1.25;;;20.70;99.00;;;;;;5106526;28;20055;-90
2022/06/04 11:23:26;;;;;;;4.20;1.48;;;20.80;98.80;;;;;;5072776;28;20048;-90
2022/06/04 11:26:00;;;;;;;2.75;1.67;;;21.00;97.70;;;;;;5071090;28;20494;-90
2022/06/04 11:28:27;;;;;;;3.60;1.80;;;21.00;98.40;;;;;;5071922;28;20102;-90
2022/06/04 11:31:18;;;;;;;4.35;2.08;;;21.10;99.00;;;;;;5088928;28;20434;-91
2022/06/04 11:34:28;;;;;;;3.67;2.05;;;21.20;96.60;;;;;;5070606;28;20197;-91
2022/06/04 11:37:09;;;;;;;5.00;2.00;;;21.10;96.60;;;;;;5072645;28;20474;-90
2022/06/04 11:40:07;;;;;;;7.68;1.52;;;21.10;97.30;;;;;;5072626;28;20043;-89
2022/06/04 11:42:44;;;;;;;5.32;1.65;;;21.00;95.60;;;;;;5044034;28;20402;-90
2022/06/04 11:45:35;;;;;;;3.92;2.08;;;21.00;97.50;;;;;;5092834;28;20032;-90
2022/06/04 11:48:08;;;;;;;4.18;1.52;;;21.00;97.70;;;;;;5076399;28;20442;-90
2022/06/04 11:50:43;;;;;;;4.53;1.95;;;21.20;97.80;;;;;;5074993;28;20043;-90
2022/06/04 11:53:36;;;;;;;3.92;2.22;;;21.10;97.10;;;;;;5093362;28;20055;-91
2022/06/04 11:56:43;;;;;;;3.90;2.25;;;21.30;97.60;;;;;;5075336;28;20396;-90
2022/06/04 11:59:39;;;;;;;4.43;1.92;;;21.40;96.50;;;;;;5009727;28;20051;-91
2022/06/04 12:02:05;;;;;;;2.97;1.80;;;21.50;96.80;;;;;;5093016;28;20039;-88
2022/06/04 12:05:02;;;;;;;4.05;1.88;;;21.30;97.10;;;;;;5109747;28;20139;-90
2022/06/04 12:07:37;;;;;;;3.72;1.80;;;21.10;96.90;;;;;;5075242;28;20506;-90
2022/06/04 12:10:16;;;;;;;4.28;1.70;;;21.30;97.30;;;;;;5076194;28;20510;-91
2022/06/04 12:12:57;;;;;;;4.22;2.00;;;21.40;96.60;;;;;;5091041;28;20044;-90
2022/06/04 12:15:34;;;;;;;5.25;2.22;;;21.60;96.10;;;;;;5091993;28;20050;-90
2022/06/04 12:18:15;;;;;;;5.65;1.80;;;21.70;96.60;;;;;;5091994;28;20094;-90
2022/06/04 12:26:23;;;;;;;2.95;1.83;;;22.10;94.70;;;;;;5093890;28;20094;-91
2022/06/04 12:28:49;;;;;;;;;;;22.10;94.90;;;;;;5106446;28;20091;-91
2022/06/04 12:31:34;;;;;;;5.55;2.05;;;22.20;90.90;;;;;;5098869;28;19935;-91
2022/06/04 12:34:01;;;;;;;3.35;1.50;;;22.30;91.60;;;;;;5108370;28;20066;-91
2022/06/04 12:36:37;;;;;;;4.28;1.77;;;22.10;93.80;;;;;;5070222;28;20039;-90
2022/06/04 12:39:22;;;;;;;3.85;1.83;;;22.30;93.40;;;;;;5108250;28;20047;-89
2022/06/04 12:41:50;;;;;;;4.45;2.10;;;22.30;92.50;;;;;;5087556;28;20051;-90
2022/06/04 12:44:34;;;;;;;4.53;1.90;;;22.00;93.30;;;;;;5106138;28;20071;-91
2022/06/04 12:47:33;;;;;;;5.55;2.67;;;21.90;93.10;;;;;;5069850;28;20057;-90
2022/06/04 12:50:18;;;;;;;7.43;2.00;;;22.00;93.80;;;;;;5082489;28;20114;-90
2022/06/04 12:53:12;;;;;;;5.78;1.95;;;22.00;94.50;;;;;;5080923;28;20047;-90
2022/06/04 12:55:54;;;;;;;2.78;1.80;;;22.00;93.10;;;;;;5094431;28;20134;-90
2022/06/04 12:58:36;;;;;;;5.75;2.08;;;22.00;92.80;;;;;;5076732;28;20054;-90
2022/06/04 13:01:05;;;;;;;3.00;1.90;;;21.90;94.10;;;;;;5092062;28;20048;-91
2022/06/04 13:03:39;;;;;;;8.60;2.10;;;22.00;94.20;;;;;;5090117;28;20059;-92
2022/06/04 13:06:19;;;;;;;3.88;1.92;;;21.90;93.50;;;;;;5075289;28;20628;-91
2022/06/04 13:08:58;;;;;;;6.30;2.42;;;21.90;93.70;;;;;;5077655;28;20051;-90
2022/06/04 13:11:34;;;;;;;3.33;1.80;;;21.70;93.70;;;;;;5079566;28;20086;-90
2022/06/04 13:14:22;;;;;;;6.35;2.25;;;21.60;94.80;;;;;;5097425;28;20121;-89
2022/06/04 13:16:58;;;;;;;6.20;2.33;;;21.50;93.70;;;;;;5095121;28;20047;-90
2022/06/04 13:19:38;;;;;;;6.00;2.08;;;21.30;95.10;;;;;;5097016;28;20130;-90
2022/06/04 13:22:18;;;;;;;4.38;1.80;;;21.70;94.90;;;;;;5079728;28;20139;-90
2022/06/04 13:24:44;;;;;;;2.35;1.40;;;21.40;95.80;;;;;;5095224;28;20048;-91
2022/06/04 13:27:13;;;;;;;6.75;1.98;;;21.50;95.00;;;;;;5079985;28;20121;-91
2022/06/04 13:29:40;;;;;;;6.47;2.22;;;21.60;95.30;;;;;;5078223;28;20043;-89
2022/06/04 13:32:15;;;;;;;4.57;1.83;;;21.70;95.50;;;;;;5080128;28;20042;-89
2022/06/04 13:34:42;;;;;;;2.38;1.50;;;21.90;94.70;;;;;;5079345;28;20052;-89
2022/06/04 13:37:23;;;;;;;5.47;1.67;;;21.90;94.00;;;;;;5062796;28;20558;-90